Tropical Cyclones
[Index]
Main Index Home Page Stock Weather Photos Extreme Storms Discussion Storm News and Storm Chasing Reports Tropical Cyclones / Hurricanes / Typhoons Weather Data and Links Wild Fires / Bushfires Weather Observation Techniques Weather Picture Catalogue Tornado Pictures and Reports Stock Video Footage and DVDs for sale
Season 1980-1981 Tropical Cyclone CLIFF Track Map
Season 1980-1981 Summaries: [BoM-AU] [JTWC-AU] [JTWC-SIO] [JTWC-SPAC] [JTWC-SH]
<<- Previous TC | JTWC 1980-1981 Season | Next TC ->>

click for intensity scale information  Lat/long Grid: Show Hide

 Date Labels: Show Hide

Joint Typhoon Warning Centre Cyclone Data

Name: CLIFF

08 Feb 1981 06:00 UTC to 15 Feb 1981 06:00 UTC

    date/time    lat    long     hPa   cat  kts
1981-02-08 06    8.5   176.9                  20          
1981-02-08 12    9.2   175.4                  20          
1981-02-08 18    9.9   174.0                  25          
1981-02-09 00   10.7   172.7                  25          
1981-02-09 06   11.5   171.5                  30          
1981-02-09 12   12.5   170.5                  30          
1981-02-09 18   13.4   169.6                  35          
1981-02-10 00   13.7   168.8                  35          
1981-02-10 06   13.9   168.4                  35          
1981-02-10 12   14.3   168.5                  35          
1981-02-10 18   14.8   168.7            1     40          
1981-02-11 00   15.5   168.7            1     45          
1981-02-11 06   16.2   168.7            2     55          
1981-02-11 12   16.9   168.4            2     60          
1981-02-11 18   17.7   168.0            2     65          
1981-02-12 00   18.8   167.5            2     70          
1981-02-12 06   20.0   166.8            3     75          
1981-02-12 12   21.2   166.0            3     75          
1981-02-12 18   22.4   165.0            2     70          
1981-02-13 00   23.6   163.8            2     65          
1981-02-13 06   24.6   162.2            2     60          
1981-02-13 12   25.3   160.5            2     55          
1981-02-13 18   25.7   158.7            1     50          
1981-02-14 00   26.0   157.0            1     45          
1981-02-14 06   26.0   155.2            1     40          
1981-02-14 12   25.6   153.7                  35          
1981-02-14 18   25.2   152.2                  35          
1981-02-15 00   25.1   150.2                  30          
1981-02-15 06   25.3   147.7                  20          
Winds are 1-min average.

Tropical cyclone tracks developed by Michael Bath using data from the Joint Typhoon Warning Centre Best Tracks and Google Maps.


[Australian Severe Weather index] [Copyright Notice] [Email Contacts] [Search This Site] [Privacy Policy]
Document: tropical_cyclone_cliff.htm Updated: 18 September 2016